Time;durP1;ratioP1;P1;durP2;ratioP2;P2;SDS_P1;SDS_P2;PMS_P1;PMS_P2;Temp;Humidity;BMP_temperature;BMP_pressure;BME280_temperature;BME280_humidity;BME280_pressure;Samples;Min_cycle;Max_cycle;Signal;HPM_P1;HPM_P2
2022/05/22 00:01:50;;;;;;;1999.90;999.90;;;;;;;15.93;100.00;95543.69;5096915;28;20222;-60
2022/05/22 00:04:16;;;;;;;1999.90;999.90;;;;;;;15.98;100.00;95540.41;5097001;28;20180;-61
2022/05/22 00:06:41;;;;;;;1999.90;999.90;;;;;;;15.99;100.00;95535.69;5097158;28;20179;-60
2022/05/22 00:09:07;;;;;;;1999.90;999.90;;;;;;;15.98;100.00;95543.16;5096771;28;20179;-60
2022/05/22 00:11:32;;;;;;;1999.90;999.90;;;;;;;15.93;100.00;95538.19;5097358;28;20188;-68
2022/05/22 00:13:58;;;;;;;1999.90;999.90;;;;;;;15.88;100.00;95535.94;5097091;28;20172;-68
2022/05/22 00:16:41;;;;;;;1999.90;999.90;;;;;;;15.86;100.00;95532.88;5096737;28;20216;-68
2022/05/22 00:19:13;;;;;;;1999.90;999.90;;;;;;;15.79;100.00;95521.25;5096843;28;20227;-68
2022/05/22 00:21:39;;;;;;;1999.90;999.90;;;;;;;15.71;100.00;95515.16;5096569;28;20248;-67
2022/05/22 00:24:06;;;;;;;1999.90;999.90;;;;;;;15.73;100.00;95512.72;5096570;28;20213;-69
2022/05/22 00:26:32;;;;;;;1999.90;999.90;;;;;;;15.75;100.00;95515.84;5097185;28;20172;-64
2022/05/22 00:28:58;;;;;;;1999.90;999.90;;;;;;;15.67;100.00;95506.19;5096390;28;20232;-67
2022/05/22 00:31:23;;;;;;;1999.90;999.90;;;;;;;15.63;100.00;95502.75;5096282;28;20195;-67
2022/05/22 00:33:49;;;;;;;1999.90;999.90;;;;;;;15.62;100.00;95501.22;5096843;28;20309;-68
2022/05/22 00:36:14;;;;;;;1999.90;999.90;;;;;;;15.63;100.00;95496.50;5096224;28;20210;-67
2022/05/22 00:38:39;;;;;;;1999.90;999.90;;;;;;;15.57;100.00;95487.22;5096370;28;20198;-67
2022/05/22 00:41:06;;;;;;;1999.90;999.90;;;;;;;15.53;100.00;95481.81;5096501;28;20316;-68
2022/05/22 00:43:44;;;;;;;1999.90;999.90;;;;;;;15.48;100.00;95478.81;5096180;28;20184;-67
2022/05/22 00:46:12;;;;;;;1999.90;999.90;;;;;;;15.42;100.00;95464.78;5096156;28;20194;-57
2022/05/22 00:48:39;;;;;;;1999.90;999.90;;;;;;;15.37;100.00;95465.28;5096201;28;20204;-65
2022/05/22 00:51:18;;;;;;;1999.90;999.90;;;;;;;15.30;100.00;95451.69;5096372;28;20195;-65
2022/05/22 00:54:24;;;;;;;1999.90;999.90;;;;;;;15.24;100.00;95438.88;5095230;28;20194;-65
2022/05/22 00:56:59;;;;;;;1999.90;999.90;;;;;;;15.25;100.00;95432.97;5096034;28;20187;-66
2022/05/22 00:59:31;;;;;;;1999.90;999.90;;;;;;;15.21;100.00;95431.50;5114162;28;20180;-65
2022/05/22 01:02:01;;;;;;;1999.90;999.90;;;;;;;15.18;100.00;95427.63;5096490;28;20188;-66
2022/05/22 01:04:29;;;;;;;1999.90;999.90;;;;;;;15.10;100.00;95431.78;5096408;28;20279;-58
2022/05/22 01:06:55;;;;;;;1999.90;999.90;;;;;;;15.08;100.00;95423.16;5095923;28;20203;-62
2022/05/22 01:09:20;;;;;;;1999.90;999.90;;;;;;;15.10;100.00;95440.03;5096330;28;20176;-62
2022/05/22 01:11:49;;;;;;;1999.90;999.90;;;;;;;15.07;100.00;95438.13;5095929;28;20266;-62
2022/05/22 01:14:19;;;;;;;1999.90;999.90;;;;;;;15.03;100.00;95426.44;5096002;28;20253;-62
2022/05/22 01:16:45;;;;;;;1999.90;999.90;;;;;;;15.02;100.00;95435.91;5095916;28;20252;-62
2022/05/22 01:19:16;;;;;;;1999.90;999.90;;;;;;;14.99;100.00;95425.75;5096057;28;20192;-61
2022/05/22 01:21:49;;;;;;;1999.90;999.90;;;;;;;15.10;100.00;95415.25;5095939;28;20196;-58
2022/05/22 01:24:14;;;;;;;1999.90;999.90;;;;;;;15.13;100.00;95419.91;5096130;28;20218;-69
2022/05/22 01:26:40;;;;;;;1999.90;999.90;;;;;;;15.13;100.00;95419.13;5095700;28;20186;-67
2022/05/22 01:29:05;;;;;;;1999.90;999.90;;;;;;;15.08;100.00;95423.16;5095605;28;20207;-67
2022/05/22 01:31:30;;;;;;;1999.90;999.90;;;;;;;15.09;100.00;95434.94;5113677;28;20239;-68
2022/05/22 01:33:56;;;;;;;1999.90;999.90;;;;;;;15.07;100.00;95438.13;5095506;28;20192;-68
2022/05/22 01:36:21;;;;;;;1999.90;999.90;;;;;;;15.09;100.00;95444.00;5096370;28;20232;-67
2022/05/22 01:38:47;;;;;;;1999.90;999.90;;;;;;;15.09;100.00;95435.72;5096189;28;20187;-68
2022/05/22 01:41:12;;;;;;;1999.90;999.90;;;;;;;15.11;100.00;95438.81;5095283;28;20190;-56
2022/05/22 01:43:37;;;;;;;1999.90;999.90;;;;;;;15.01;100.00;95431.59;5095660;28;20204;-67
2022/05/22 01:46:03;;;;;;;1999.90;999.90;;;;;;;14.94;100.00;95434.50;5095427;28;20259;-68
2022/05/22 01:48:29;;;;;;;1999.90;999.90;;;;;;;14.92;100.00;95431.44;5095505;28;20231;-68
2022/05/22 01:50:54;;;;;;;1999.90;999.90;;;;;;;14.91;100.00;95429.91;5095311;28;20215;-68
2022/05/22 01:53:21;;;;;;;1999.90;999.90;;;;;;;14.85;100.00;95426.09;5095760;28;20208;-67
2022/05/22 01:55:47;;;;;;;1999.90;999.90;;;;;;;14.80;100.00;95423.88;5095641;28;20180;-68
2022/05/22 01:58:12;;;;;;;1999.90;999.90;;;;;;;14.70;100.00;95418.63;5095371;28;20198;-64
2022/05/22 02:00:38;;;;;;;1999.90;999.90;;;;;;;14.56;100.00;95414.22;5095364;28;20184;-63
2022/05/22 02:03:04;;;;;;;1999.90;999.90;;;;;;;14.51;100.00;95417.50;5095429;28;20204;-64
2022/05/22 02:05:31;;;;;;;1999.90;999.90;;;;;;;14.55;100.00;95411.91;5098630;28;20180;-65
2022/05/22 02:10:40;;;;;;;1999.90;999.90;;;;;;;14.40;100.00;95405.97;5116931;28;20260;-62
2022/05/22 02:13:07;;;;;;;1999.90;999.90;;;;;;;14.35;100.00;95403.72;5098497;28;20188;-64
2022/05/22 02:15:32;;;;;;;1999.90;999.90;;;;;;;14.33;100.00;95397.09;5098554;28;20207;-64
2022/05/22 02:17:57;;;;;;;1999.90;999.90;;;;;;;14.31;100.00;95380.28;5098472;28;20212;-60
2022/05/22 02:20:23;;;;;;;1999.90;999.90;;;;;;;14.29;100.00;95388.97;5098690;28;20228;-59
2022/05/22 02:22:55;;;;;;;1999.90;999.90;;;;;;;14.22;100.00;95389.13;5098417;28;20272;-59
2022/05/22 02:25:27;;;;;;;1999.90;999.90;;;;;;;14.20;100.00;95374.97;5098558;28;20180;-59
2022/05/22 02:27:54;;;;;;;1999.90;999.90;;;;;;;14.22;100.00;95383.63;5098412;28;20290;-59
2022/05/22 02:30:23;;;;;;;1999.90;999.90;;;;;;;14.19;100.00;95384.44;5098248;28;20180;-59
2022/05/22 02:32:49;;;;;;;1999.90;999.90;;;;;;;14.15;100.00;95381.00;5097954;28;20194;-59
2022/05/22 02:35:15;;;;;;;1999.90;999.90;;;;;;;14.12;100.00;95379.09;5098816;28;20195;-70
2022/05/22 02:37:52;;;;;;;1999.90;999.90;;;;;;;14.07;100.00;95374.13;5098316;28;20192;-60
2022/05/22 02:40:20;;;;;;;1999.90;999.90;;;;;;;14.01;100.00;95373.06;5098761;28;20187;-60
2022/05/22 02:42:48;;;;;;;1999.90;999.90;;;;;;;14.00;100.00;95371.53;5098193;28;20192;-60
2022/05/22 02:45:16;;;;;;;1999.90;999.90;;;;;;;13.96;100.00;95370.81;5116109;28;20258;-61
2022/05/22 02:47:41;;;;;;;1999.90;999.90;;;;;;;13.93;100.00;95363.44;5097996;28;20236;-60
2022/05/22 02:50:08;;;;;;;1999.90;999.90;;;;;;;13.88;100.00;95358.44;5098282;28;20196;-60
2022/05/22 02:52:34;;;;;;;1999.90;999.90;;;;;;;13.82;100.00;95360.16;5097990;28;20188;-58
2022/05/22 02:54:59;;;;;;;1999.90;999.90;;;;;;;13.76;100.00;95350.84;5098033;28;20191;-63
2022/05/22 02:57:25;;;;;;;1999.90;999.90;;;;;;;13.71;100.00;95354.09;5098069;28;20188;-59
2022/05/22 02:59:51;;;;;;;1999.90;999.90;;;;;;;13.69;100.00;95358.47;5098747;28;20188;-60
2022/05/22 03:02:17;;;;;;;1999.90;999.90;;;;;;;13.67;100.00;95353.41;5097876;28;20193;-60
2022/05/22 03:04:42;;;;;;;1999.90;999.90;;;;;;;13.64;100.00;95362.47;5097921;28;20275;-60
2022/05/22 03:07:10;;;;;;;1999.90;999.90;;;;;;;13.59;100.00;95357.50;5097765;28;20208;-60
2022/05/22 03:09:37;;;;;;;1999.90;999.90;;;;;;;13.51;100.00;95361.56;5097714;28;20180;-60
2022/05/22 03:12:11;;;;;;;1999.90;999.90;;;;;;;13.56;100.00;95358.34;5097663;28;20184;-58
2022/05/22 03:14:36;;;;;;;1999.90;999.90;;;;;;;13.56;100.00;95361.09;5097244;28;20184;-63
2022/05/22 03:17:02;;;;;;;1999.90;999.90;;;;;;;13.55;100.00;95362.25;5097420;28;20222;-63
2022/05/22 03:19:27;;;;;;;1999.90;999.90;;;;;;;13.57;100.00;95359.88;5098389;28;20176;-62
2022/05/22 03:21:52;;;;;;;1999.90;999.90;;;;;;;13.58;100.00;95358.69;5097586;28;20206;-62
2022/05/22 03:24:18;;;;;;;1999.90;999.90;;;;;;;13.62;100.00;95359.38;5098116;28;20172;-61
2022/05/22 03:26:43;;;;;;;1999.90;999.90;;;;;;;13.61;100.00;95360.59;5097639;28;20187;-62
2022/05/22 03:29:09;;;;;;;1999.90;999.90;;;;;;;13.58;100.00;95355.94;5097423;28;20195;-62
2022/05/22 03:31:34;;;;;;;1999.90;999.90;;;;;;;13.57;100.00;95348.91;5097219;28;20271;-63
2022/05/22 03:33:59;;;;;;;1999.90;999.90;;;;;;;13.57;100.00;95348.91;5097152;28;20215;-64
2022/05/22 03:36:24;;;;;;;1999.90;999.90;;;;;;;13.57;100.00;95342.63;5096992;28;20187;-64
2022/05/22 03:38:50;;;;;;;1999.90;999.90;;;;;;;13.57;100.00;95337.94;5097205;28;20310;-65
2022/05/22 03:41:15;;;;;;;1999.90;999.90;;;;;;;13.65;100.00;95344.81;5097870;28;20176;-64
2022/05/22 03:43:41;;;;;;;1999.90;999.90;;;;;;;13.67;100.00;95353.41;5097012;28;20213;-64
2022/05/22 03:46:06;;;;;;;1999.90;999.90;;;;;;;13.67;100.00;95342.44;5097146;28;20196;-63
2022/05/22 03:48:31;;;;;;;1999.90;999.90;;;;;;;13.77;100.00;95340.66;5097619;28;20191;-59
2022/05/22 03:50:56;;;;;;;1999.90;999.90;;;;;;;13.78;100.00;95332.00;5097246;28;20180;-58
2022/05/22 03:53:22;;;;;;;1999.90;999.90;;;;;;;13.87;100.00;95334.94;5097185;28;20199;-57
2022/05/22 03:55:47;;;;;;;1999.90;999.90;;;;;;;13.91;100.00;95338.38;5097010;28;20203;-58
2022/05/22 03:58:16;;;;;;;1999.90;999.90;;;;;;;14.09;100.00;95336.00;5115237;28;20262;-58
2022/05/22 04:00:42;;;;;;;1999.90;999.90;;;;;;;14.37;100.00;95340.09;5096814;28;20205;-58
2022/05/22 04:03:07;;;;;;;1999.90;999.90;;;;;;;14.44;100.00;95335.22;5097143;28;20191;-57
2022/05/22 04:05:32;;;;;;;1999.90;999.90;;;;;;;14.55;100.00;95335.72;5097338;28;20228;-58
2022/05/22 04:07:58;;;;;;;1999.90;999.90;;;;;;;14.95;100.00;95331.56;5097350;28;20264;-62
2022/05/22 04:10:23;;;;;;;1999.90;999.90;;;;;;;15.36;100.00;95334.41;5097178;28;20225;-56
2022/05/22 04:12:48;;;;;;;1999.90;999.90;;;;;;;15.69;100.00;95338.59;5096653;28;20199;-56
2022/05/22 04:15:18;;;;;;;1999.90;999.90;;;;;;;16.01;100.00;95343.94;5097072;28;20212;-57
2022/05/22 04:17:44;;;;;;;1999.90;999.90;;;;;;;16.26;100.00;95343.19;5096510;28;20215;-56
2022/05/22 04:20:10;;;;;;;1999.90;999.90;;;;;;;16.66;100.00;95352.56;5096996;28;20184;-56
2022/05/22 04:25:11;;;;;;;1999.90;999.90;;;;;;;16.83;100.00;95344.94;5096899;28;20206;-57
2022/05/22 04:25:21;;;;;;;1999.90;999.90;;;;;;;17.24;100.00;95359.28;5114425;28;20195;-55
2022/05/22 04:27:47;;;;;;;1999.90;999.90;;;;;;;17.59;100.00;95362.81;5096075;28;20216;-63
2022/05/22 04:30:17;;;;;;;1999.90;999.90;;;;;;;17.73;100.00;95365.03;5096772;28;20198;-59
2022/05/22 04:32:46;;;;;;;1999.90;999.90;;;;;;;17.83;100.00;95367.44;5096264;28;20190;-58
2022/05/22 04:35:12;;;;;;;1999.90;999.90;;;;;;;17.77;100.00;95365.72;5096815;28;20184;-58
2022/05/22 04:37:37;;;;;;;1999.90;999.90;;;;;;;17.70;100.00;95363.97;5096475;28;20229;-59
2022/05/22 04:40:03;;;;;;;1999.90;999.90;;;;;;;17.54;100.00;95360.63;5096384;28;20183;-59
2022/05/22 04:42:28;;;;;;;1999.90;999.90;;;;;;;17.97;100.00;95360.63;5096377;28;20233;-59
2022/05/22 04:44:53;;;;;;;1999.90;999.90;;;;;;;18.03;100.00;95367.13;5096542;28;20277;-62
2022/05/22 04:47:19;;;;;;;1999.90;999.90;;;;;;;18.47;100.00;95365.84;5096200;28;20202;-66
2022/05/22 04:49:48;;;;;;;1999.90;999.90;;;;;;;18.74;100.00;95368.69;5096201;28;20195;-66
2022/05/22 04:52:13;;;;;;;1999.90;999.90;;;;;;;18.97;100.00;95379.22;5096780;28;20191;-65
2022/05/22 04:54:39;;;;;;;1999.90;999.90;;;;;;;18.62;100.00;95388.94;5095946;28;20204;-63
2022/05/22 04:57:04;;;;;;;1999.90;999.90;;;;;;;19.00;100.00;95381.84;5096458;28;20251;-63
2022/05/22 04:59:30;;;;;;;1999.90;999.90;;;;;;;19.47;100.00;95378.72;5096043;28;20180;-63
2022/05/22 05:01:55;;;;;;;1999.90;999.90;;;;;;;20.02;99.39;95380.22;5096181;28;20186;-63
2022/05/22 05:04:20;;;;;;;1999.90;999.90;;;;;;;20.27;94.90;95374.34;5096224;28;20179;-59
2022/05/22 05:06:46;;;;;;;1999.90;999.90;;;;;;;20.64;90.13;95367.44;5095914;28;20192;-58
2022/05/22 05:09:11;;;;;;;1999.90;999.90;;;;;;;20.48;89.41;95370.59;5095830;28;20207;-57
2022/05/22 05:11:37;;;;;;;1999.90;999.90;;;;;;;20.42;89.57;95360.59;5096128;28;20183;-58
2022/05/22 05:14:02;;;;;;;1999.90;999.90;;;;;;;20.46;87.76;95366.72;5095914;28;20275;-58
2022/05/22 05:16:28;;;;;;;1999.90;999.90;;;;;;;20.73;85.89;95367.41;5095677;28;20298;-57
2022/05/22 05:18:54;;;;;;;1999.90;999.90;;;;;;;20.45;89.34;95354.88;5095814;28;20183;-58
2022/05/22 05:21:19;;;;;;;1999.90;999.90;;;;;;;20.68;87.91;95356.19;5095678;28;20187;-57
2022/05/22 05:23:44;;;;;;;1999.90;999.90;;;;;;;20.68;85.14;95348.59;5095884;28;20230;-58
2022/05/22 05:26:10;;;;;;;1999.90;999.90;;;;;;;21.22;81.41;95351.13;5095621;28;20184;-57
2022/05/22 05:28:35;;;;;;;1999.90;999.90;;;;;;;21.02;81.40;95350.19;5096459;28;20256;-58
2022/05/22 05:31:03;;;;;;;1999.90;999.90;;;;;;;19.73;84.93;95355.00;5096053;28;20188;-57
2022/05/22 05:33:32;;;;;;;1999.90;999.90;;;;;;;20.67;84.62;95355.41;5095605;28;20195;-58
2022/05/22 05:35:57;;;;;;;1999.90;999.90;;;;;;;21.09;81.93;95358.91;5095606;28;20180;-58
2022/05/22 05:38:23;;;;;;;1999.90;999.90;;;;;;;21.44;76.72;95361.91;5096746;28;20198;-62
2022/05/22 05:40:49;;;;;;;1999.90;999.90;;;;;;;22.14;75.09;95359.03;5099115;28;20180;-58
2022/05/22 05:43:15;;;;;;;1999.90;999.90;;;;;;;22.73;69.36;95367.38;5099033;28;20199;-58
2022/05/22 05:45:42;;;;;;;1999.90;999.90;;;;;;;21.58;70.19;95361.97;5098985;28;20191;-58
2022/05/22 05:48:08;;;;;;;1999.90;999.90;;;;;;;22.14;70.16;95359.03;5099102;28;20211;-58
2022/05/22 05:50:33;;;;;;;1999.90;999.90;;;;;;;22.90;64.72;95362.84;5098991;28;20180;-58
2022/05/22 05:53:00;;;;;;;1999.90;999.90;;;;;;;23.06;64.13;95365.09;5099545;28;20188;-58
2022/05/22 05:55:26;;;;;;;1999.90;999.90;;;;;;;23.49;62.72;95369.78;5098902;28;20191;-58
2022/05/22 05:57:51;;;;;;;1999.90;999.90;;;;;;;23.67;59.25;95375.06;5098934;28;20187;-58
2022/05/22 06:00:20;;;;;;;1999.90;999.90;;;;;;;23.57;57.47;95373.69;5116826;28;20191;-64
2022/05/22 06:02:45;;;;;;;1999.90;999.90;;;;;;;23.86;58.68;95359.56;5099201;28;20192;-65
2022/05/22 06:05:12;;;;;;;1999.90;999.90;;;;;;;24.17;55.79;95356.88;5099093;28;20201;-64
2022/05/22 06:07:38;;;;;;;1999.90;999.90;;;;;;;24.05;54.85;95360.81;5098907;28;20212;-66
2022/05/22 06:10:06;;;;;;;1999.90;999.90;;;;;;;23.95;55.76;95351.06;5098579;28;20187;-66
2022/05/22 06:12:32;;;;;;;1999.90;999.90;;;;;;;24.68;52.18;95342.88;5098543;28;20191;-65
2022/05/22 06:14:57;;;;;;;1999.90;999.90;;;;;;;24.93;51.08;95340.03;5098631;28;20192;-58
2022/05/22 06:17:31;;;;;;;1999.90;999.90;;;;;;;25.09;51.35;95346.97;5098355;28;20204;-57
2022/05/22 06:19:57;;;;;;;1999.90;999.90;;;;;;;25.22;51.00;95336.16;5098389;28;20179;-61
2022/05/22 06:22:24;;;;;;;1999.90;999.90;;;;;;;25.63;48.12;95340.19;5098534;28;20180;-61
2022/05/22 06:24:50;;;;;;;1999.90;999.90;;;;;;;25.56;47.41;95340.66;5098233;28;20179;-61
2022/05/22 06:27:16;;;;;;;1999.90;999.90;;;;;;;25.74;48.66;95331.81;5098707;28;20260;-61
2022/05/22 06:29:42;;;;;;;1999.90;999.90;;;;;;;25.97;45.53;95333.47;5098165;28;20266;-61
2022/05/22 06:32:11;;;;;;;1999.90;999.90;;;;;;;23.89;49.29;95336.28;5098365;28;20191;-61
2022/05/22 06:34:40;;;;;;;1999.90;999.90;;;;;;;25.18;44.79;95325.22;5098208;28;20179;-63
2022/05/22 06:37:08;;;;;;;1999.90;999.90;;;;;;;24.39;45.80;95334.75;5098344;28;20187;-65
2022/05/22 06:39:51;;;;;;;1999.90;999.90;;;;;;;24.68;46.20;95329.69;5098218;28;20176;-65
2022/05/22 06:42:28;;;;;;;1999.90;999.90;;;;;;;25.11;44.75;95322.09;5098641;28;20183;-66
2022/05/22 06:44:54;;;;;;;1999.90;999.90;;;;;;;24.94;44.58;95318.44;5098592;28;20207;-66
2022/05/22 06:47:20;;;;;;;1999.90;999.90;;;;;;;24.52;45.58;95321.16;5098058;28;20246;-65
2022/05/22 06:49:46;;;;;;;1999.90;999.90;;;;;;;25.62;44.40;95316.28;5097056;28;20183;-64
2022/05/22 06:52:12;;;;;;;1999.90;999.90;;;;;;;26.17;42.37;95324.06;5098675;28;20180;-63
2022/05/22 06:54:37;;;;;;;1999.90;999.90;;;;;;;24.54;45.04;95315.81;5098556;28;20191;-60
2022/05/22 06:57:03;;;;;;;1999.90;999.90;;;;;;;25.59;43.73;95317.28;5115940;28;20176;-58
2022/05/22 06:59:28;;;;;;;1999.90;999.90;;;;;;;26.32;42.48;95313.41;5097934;28;20187;-57
2022/05/22 07:01:53;;;;;;;1999.90;999.90;;;;;;;26.86;42.41;95312.66;5097962;28;20183;-57
2022/05/22 07:04:21;;;;;;;1999.90;999.90;;;;;;;25.73;42.94;95305.13;5098041;28;20188;-58
2022/05/22 07:06:47;;;;;;;1999.90;999.90;;;;;;;26.77;42.91;95304.50;5098173;28;20184;-58
2022/05/22 07:09:13;;;;;;;1999.90;999.90;;;;;;;28.58;39.06;95295.88;5097728;28;20210;-57
2022/05/22 07:11:38;;;;;;;1999.90;999.90;;;;;;;27.67;38.76;95310.16;5098283;28;20176;-66
2022/05/22 07:14:04;;;;;;;1999.90;999.90;;;;;;;28.58;39.14;95295.88;5097817;28;20191;-61
2022/05/22 07:16:31;;;;;;;1999.90;999.90;;;;;;;28.70;36.72;95298.06;5097549;28;20200;-61
2022/05/22 07:18:56;;;;;;;1999.90;999.90;;;;;;;28.81;38.67;95302.81;5097546;28;20180;-61
2022/05/22 07:21:22;;;;;;;1999.90;999.90;;;;;;;28.91;36.93;95301.22;5097407;28;20187;-61
2022/05/22 07:23:47;;;;;;;1999.90;999.90;;;;;;;29.30;36.30;95293.13;5098249;28;20248;-61
2022/05/22 07:26:13;;;;;;;1999.90;999.90;;;;;;;30.25;35.00;95297.09;5097391;28;20226;-61
2022/05/22 07:28:38;;;;;;;1999.90;999.90;;;;;;;30.49;33.97;95288.53;5097865;28;20206;-60
2022/05/22 07:31:04;;;;;;;1999.90;999.90;;;;;;;30.33;35.32;95293.13;5097271;28;20256;-60
2022/05/22 07:33:29;;;;;;;1999.90;999.90;;;;;;;30.26;34.42;95284.53;5097609;28;20211;-56
2022/05/22 07:35:58;;;;;;;1999.90;999.90;;;;;;;30.50;34.12;95284.41;5097176;28;20187;-57
2022/05/22 07:38:25;;;;;;;1999.90;999.90;;;;;;;31.01;32.11;95283.03;5097382;28;20184;-56
2022/05/22 07:40:51;;;;;;;1999.90;999.90;;;;;;;29.73;33.07;95291.13;5097263;28;20189;-57
2022/05/22 07:43:17;;;;;;;1999.90;999.90;;;;;;;29.33;33.53;95292.09;5097293;28;20188;-56
2022/05/22 07:45:42;;;;;;;1999.90;999.90;;;;;;;30.86;32.04;95282.81;5114996;28;20245;-58
2022/05/22 07:48:08;;;;;;;1999.90;999.90;;;;;;;30.87;32.05;95282.28;5097344;28;20215;-69
2022/05/22 07:50:33;;;;;;;1999.90;999.90;;;;;;;31.69;31.19;95281.25;5097658;28;20180;-69
2022/05/22 07:52:59;;;;;;;1999.90;999.90;;;;;;;32.03;31.05;95279.25;5097632;28;20180;-69
2022/05/22 07:55:24;;;;;;;1999.90;999.90;;;;;;;32.43;29.93;95283.50;5097525;28;20190;-68
2022/05/22 07:57:49;;;;;;;1999.90;999.90;;;;;;;30.48;31.80;95281.38;5096887;28;20218;-70
2022/05/22 08:00:20;;;;;;;1999.90;999.90;;;;;;;30.63;32.44;95281.63;5096923;28;20183;-71
2022/05/22 08:02:48;;;;;;;1999.90;999.90;;;;;;;30.98;31.95;95267.19;5096297;28;20191;-69
2022/05/22 08:05:17;;;;;;;1999.90;999.90;;;;;;;29.49;33.72;95271.44;5096900;28;20211;-59
2022/05/22 08:07:42;;;;;;;1999.90;999.90;;;;;;;29.92;32.26;95269.34;5114909;28;20223;-76
2022/05/22 08:10:09;;;;;;;1999.90;999.90;;;;;;;29.57;33.48;95270.28;5097235;28;20179;-67
2022/05/22 08:12:39;;;;;;;1999.90;999.90;;;;;;;30.10;32.42;95262.94;5096719;28;20240;-69
2022/05/22 08:15:07;;;;;;;1999.90;999.90;;;;;;;30.08;32.48;95265.56;5096581;28;20220;-71
2022/05/22 08:17:36;;;;;;;1999.90;999.90;;;;;;;30.07;31.41;95270.41;5096707;28;20207;-66
2022/05/22 08:20:07;;;;;;;1999.90;999.90;;;;;;;30.76;31.50;95257.06;5097018;28;20187;-70
2022/05/22 08:22:33;;;;;;;1999.90;999.90;;;;;;;31.28;31.17;95262.03;5096742;28;20270;-67
2022/05/22 08:25:01;;;;;;;1999.90;999.90;;;;;;;30.28;31.58;95260.16;5096637;28;20285;-60
2022/05/22 08:27:27;;;;;;;1999.90;999.90;;;;;;;31.00;31.26;95256.88;5096329;28;20206;-69
2022/05/22 08:29:53;;;;;;;1999.90;999.90;;;;;;;29.09;31.90;95247.84;5096356;28;20253;-69
2022/05/22 08:32:19;;;;;;;1999.90;999.90;;;;;;;30.54;30.69;95248.94;5096661;28;20275;-71
2022/05/22 08:34:44;;;;;;;1999.90;999.90;;;;;;;30.81;29.92;95247.72;5096369;28;20207;-69
2022/05/22 08:37:10;;;;;;;1999.90;999.90;;;;;;;30.07;31.75;95249.91;5096485;28;20183;-68
2022/05/22 08:39:35;;;;;;;1999.90;999.90;;;;;;;31.26;30.29;95246.94;5096968;28;20211;-70
2022/05/22 08:42:10;;;;;;;1999.90;999.90;;;;;;;30.64;30.42;95232.38;5096340;28;20194;-71
2022/05/22 08:44:36;;;;;;;1999.90;999.90;;;;;;;30.58;31.00;95245.81;5096284;28;20248;-71
2022/05/22 08:47:10;;;;;;;1999.90;999.90;;;;;;;30.52;31.08;95236.69;5096080;28;20247;-63
2022/05/22 08:49:39;;;;;;;1999.90;999.90;;;;;;;29.90;31.22;95240.97;5096023;28;20240;-64
2022/05/22 08:52:17;;;;;;;1999.90;999.90;;;;;;;30.23;30.89;95234.84;5096532;28;20187;-65
2022/05/22 08:54:48;;;;;;;1999.90;999.90;;;;;;;30.52;30.69;95236.69;5096587;28;20189;-65
2022/05/22 09:00:12;;;;;;;1999.90;999.90;;;;;;;32.19;29.20;95225.16;5114424;28;20198;-61
2022/05/22 09:02:47;;;;;;;1999.90;999.90;;;;;;;31.26;30.54;95236.41;5095723;28;20240;-59
2022/05/22 09:05:19;;;;;;;1999.90;999.90;;;;;;;31.60;30.38;95225.94;5096531;28;20202;-64
2022/05/22 09:07:55;;;;;;;1999.90;999.90;;;;;;;31.86;30.36;95220.25;5095731;28;20200;-65
2022/05/22 09:10:25;;;;;;;1999.90;999.90;;;;;;;32.44;28.61;95222.81;5096406;28;20275;-65
2022/05/22 09:12:59;;;;;;;1999.90;999.90;;;;;;;32.21;29.10;95233.84;5096008;28;20179;-64
2022/05/22 09:15:38;;;;;;;1999.90;999.90;;;;;;;32.11;29.07;95229.97;5099266;28;20168;-62
2022/05/22 09:18:10;;;;;;;1999.90;999.90;;;;;;;32.05;28.95;95232.19;5099854;28;20215;-63
2022/05/22 09:20:49;;;;;;;1999.90;999.90;;;;;;;31.51;29.28;95234.88;5099718;28;20195;-63
2022/05/22 09:23:44;;;;;;;1999.90;999.90;;;;;;;30.09;31.29;95234.03;5099916;28;20225;-59
2022/05/22 09:26:28;;;;;;;1999.90;999.90;;;;;;;28.36;33.23;95217.31;5099607;28;20234;-59
2022/05/22 09:29:18;;;;;;;1999.90;999.90;;;;;;;30.32;31.53;95217.53;5099559;28;20195;-59
2022/05/22 09:32:14;;;;;;;1999.90;999.90;;;;;;;28.78;32.25;95213.88;5099644;28;20278;-59
2022/05/22 09:34:58;;;;;;;1999.90;999.90;;;;;;;29.05;32.81;95216.41;5099200;28;20184;-59
2022/05/22 09:37:23;;;;;;;1999.90;999.90;;;;;;;29.35;33.34;95210.72;5099388;28;20183;-63
2022/05/22 09:40:01;;;;;;;1999.90;999.90;;;;;;;29.08;33.02;95197.72;5099273;28;20188;-63
2022/05/22 09:42:37;;;;;;;1999.90;999.90;;;;;;;30.10;31.74;95203.75;5099657;28;20213;-60
2022/05/22 09:45:21;;;;;;;1999.90;999.90;;;;;;;29.38;31.83;95198.34;5099066;28;20188;-61
2022/05/22 09:47:55;;;;;;;1999.90;999.90;;;;;;;30.69;31.30;95192.03;5098840;28;20241;-60
2022/05/22 09:50:44;;;;;;;1999.90;999.90;;;;;;;30.44;32.52;95185.03;5099322;28;20240;-60
2022/05/22 09:53:26;;;;;;;1999.90;999.90;;;;;;;31.06;31.16;95181.34;5117039;28;20179;-60
2022/05/22 09:56:01;;;;;;;1999.90;999.90;;;;;;;29.64;33.88;95176.78;5099062;28;20202;-63
2022/05/22 09:58:38;;;;;;;1999.90;999.90;;;;;;;29.80;32.29;95178.63;5099658;28;20193;-64
2022/05/22 10:01:06;;;;;;;1999.90;999.90;;;;;;;29.59;31.77;95174.06;5098694;28;20187;-64
2022/05/22 10:04:09;;;;;;;1999.90;999.90;;;;;;;30.94;30.50;95165.94;5098893;28;20180;-64
2022/05/22 10:06:53;;;;;;;1999.90;999.90;;;;;;;30.63;30.96;95168.81;5099392;28;20226;-63
2022/05/22 10:09:24;;;;;;;1999.90;999.90;;;;;;;31.02;31.85;95166.78;5098563;28;20206;-63
2022/05/22 10:12:21;;;;;;;1999.90;999.90;;;;;;;29.62;32.44;95167.34;5098550;28;20274;-64
2022/05/22 10:15:16;;;;;;;1999.90;999.90;;;;;;;29.78;32.79;95163.53;5098933;28;20286;-64
2022/05/22 10:18:13;;;;;;;1999.90;999.90;;;;;;;29.71;32.00;95164.16;5098328;28;20230;-62
2022/05/22 10:21:03;;;;;;;1999.90;999.90;;;;;;;29.99;32.38;95142.72;5098810;28;20186;-61
2022/05/22 10:23:29;;;;;;;1999.90;999.90;;;;;;;30.13;31.63;95149.91;5098584;28;20187;-62
2022/05/22 10:26:00;;;;;;;1999.90;999.90;;;;;;;31.35;29.77;95156.88;5098312;28;20184;-63
2022/05/22 10:28:36;;;;;;;1999.90;999.90;;;;;;;30.49;30.99;95153.16;5098405;28;20216;-63
2022/05/22 10:31:07;;;;;;;1999.90;999.90;;;;;;;29.82;31.25;95142.22;5098991;28;20183;-62
2022/05/22 10:33:42;;;;;;;1999.90;999.90;;;;;;;29.00;32.46;95146.13;5098736;28;20249;-66
2022/05/22 10:36:19;;;;;;;1999.90;999.90;;;;;;;29.60;32.01;95145.34;5098313;28;20195;-73
2022/05/22 10:38:54;;;;;;;1999.90;999.90;;;;;;;30.64;31.07;95147.75;5098696;28;20211;-77
2022/05/22 10:44:33;;;;;;;1999.90;999.90;;;;;;;29.73;32.14;95139.03;5116811;28;20191;-79
2022/05/22 10:47:02;;;;;;;1999.90;999.90;;;;;;;30.41;32.16;95133.28;5098466;28;20285;-79
2022/05/22 10:49:45;;;;;;;1999.90;999.90;;;;;;;29.91;31.62;95130.56;5098043;28;20230;-79
2022/05/22 10:52:14;;;;;;;1999.90;999.90;;;;;;;29.72;31.21;95127.00;5098177;28;20191;-59
2022/05/22 10:54:47;;;;;;;1999.90;999.90;;;;;;;29.82;30.46;95125.31;5097958;28;20176;-77
2022/05/22 10:57:15;;;;;;;1999.90;999.90;;;;;;;29.63;31.36;95115.38;5097899;28;20180;-74
2022/05/22 10:59:41;;;;;;;1999.90;999.90;;;;;;;30.39;30.36;95132.31;5115775;28;20267;-74
2022/05/22 11:02:24;;;;;;;1999.90;999.90;;;;;;;30.97;29.03;95107.63;5097908;28;20207;-76
2022/05/22 11:04:51;;;;;;;1999.90;999.90;;;;;;;31.69;28.74;95103.25;5098077;28;20179;-77
2022/05/22 11:07:45;;;;;;;1999.90;999.90;;;;;;;30.95;29.60;95104.59;5097834;28;20191;-77